createdAt,value
2019-03-16T00:02:24.616Z,24.63
2019-03-16T00:04:50.789Z,27.27
2019-03-16T00:07:16.975Z,23.50
2019-03-16T00:09:43.142Z,21.80
2019-03-16T00:12:09.344Z,23.80
2019-03-16T00:14:35.599Z,23.17
2019-03-16T00:17:01.768Z,27.37
2019-03-16T00:19:27.960Z,20.67
2019-03-16T00:21:55.197Z,20.40
2019-03-16T00:24:21.368Z,34.83
2019-03-16T00:26:47.523Z,20.67
2019-03-16T00:29:13.678Z,20.00
2019-03-16T00:31:39.834Z,22.13
2019-03-16T00:34:06.008Z,23.17
2019-03-16T00:36:32.170Z,23.20
2019-03-16T00:38:58.662Z,19.27
2019-03-16T00:41:24.869Z,18.20
2019-03-16T00:43:51.017Z,20.37
2019-03-16T00:46:17.266Z,18.13
2019-03-16T00:48:43.619Z,15.07
2019-03-16T00:51:09.807Z,23.87
2019-03-16T00:53:35.959Z,16.53
2019-03-16T00:56:02.483Z,14.63
2019-03-16T00:58:28.698Z,16.23
2019-03-16T01:00:54.872Z,16.63
2019-03-16T01:03:22.199Z,16.83
2019-03-16T01:05:48.344Z,10.37
2019-03-16T01:08:14.499Z,13.00
2019-03-16T01:10:40.655Z,14.43
2019-03-16T01:13:07.078Z,11.17
2019-03-16T01:15:33.333Z,10.93
2019-03-16T01:17:59.478Z,10.67
2019-03-16T01:20:25.626Z,10.53
2019-03-16T01:22:51.773Z,10.87
2019-03-16T01:25:19.035Z,9.73
2019-03-16T01:27:45.180Z,10.87
2019-03-16T01:30:14.342Z,9.73
2019-03-16T01:32:41.103Z,10.20
2019-03-16T01:35:07.460Z,12.10
2019-03-16T01:37:33.600Z,10.97
2019-03-16T01:40:00.121Z,10.93
2019-03-16T01:42:26.358Z,14.80
2019-03-16T01:44:52.523Z,9.10
2019-03-16T01:47:18.707Z,13.30
2019-03-16T01:49:44.846Z,13.07
2019-03-16T01:52:11.019Z,11.20
2019-03-16T01:54:37.162Z,10.47
2019-03-16T01:57:03.319Z,13.00
2019-03-16T01:59:29.460Z,11.50
2019-03-16T02:01:55.619Z,11.57
2019-03-16T02:04:21.768Z,9.47
2019-03-16T02:06:47.927Z,10.63
2019-03-16T02:09:14.183Z,11.33
2019-03-16T02:11:40.348Z,9.80
2019-03-16T02:14:06.508Z,11.03
2019-03-16T02:16:32.916Z,6.90
2019-03-16T02:18:59.260Z,8.87
2019-03-16T02:21:25.416Z,14.00
2019-03-16T02:23:51.554Z,9.63
2019-03-16T02:26:17.715Z,8.83
2019-03-16T02:28:43.858Z,11.53
2019-03-16T02:31:10.031Z,7.30
2019-03-16T02:33:36.398Z,10.17
2019-03-16T02:36:02.867Z,9.73
2019-03-16T02:38:29.023Z,12.20
2019-03-16T02:40:55.186Z,10.17
2019-03-16T02:43:21.331Z,9.97
2019-03-16T02:45:47.501Z,10.77
2019-03-16T02:48:13.988Z,13.13
2019-03-16T02:50:40.140Z,9.27
2019-03-16T02:53:06.294Z,9.90
2019-03-16T02:55:32.819Z,14.93
2019-03-16T02:57:59.481Z,11.97
2019-03-16T03:00:25.991Z,10.33
2019-03-16T03:02:52.159Z,6.60
2019-03-16T03:05:18.354Z,11.13
2019-03-16T03:07:44.770Z,11.20
2019-03-16T03:10:12.877Z,6.83
2019-03-16T03:12:40.172Z,8.13
2019-03-16T03:15:07.517Z,8.83
2019-03-16T03:17:33.713Z,8.97
2019-03-16T03:19:59.858Z,7.33
2019-03-16T03:22:26.028Z,10.77
2019-03-16T03:24:52.433Z,13.27
2019-03-16T03:27:18.595Z,12.53
2019-03-16T03:29:44.739Z,7.43
2019-03-16T03:32:11.224Z,10.97
2019-03-16T03:34:37.584Z,12.07
2019-03-16T03:37:03.835Z,11.90
2019-03-16T03:39:29.985Z,13.13
2019-03-16T03:41:56.188Z,8.67
2019-03-16T03:44:22.332Z,14.20
2019-03-16T03:46:49.623Z,11.63
2019-03-16T03:49:15.777Z,12.27
2019-03-16T03:51:42.214Z,11.40
2019-03-16T03:54:08.369Z,8.43
2019-03-16T03:56:34.525Z,9.53
2019-03-16T03:59:01.121Z,10.40
2019-03-16T04:01:27.271Z,13.77
2019-03-16T04:03:53.420Z,10.50
2019-03-16T04:06:19.672Z,9.60
2019-03-16T04:08:45.831Z,11.20
2019-03-16T04:11:12.046Z,14.93
2019-03-16T04:13:38.208Z,11.90
2019-03-16T04:16:04.387Z,12.90
2019-03-16T04:18:30.929Z,10.97
2019-03-16T04:20:57.163Z,9.37
2019-03-16T04:23:23.320Z,13.70
2019-03-16T04:25:49.707Z,12.97
2019-03-16T04:28:16.243Z,12.90
2019-03-16T04:30:42.389Z,14.57
2019-03-16T04:33:08.534Z,11.77
2019-03-16T04:35:34.695Z,16.60
2019-03-16T04:38:00.855Z,14.33
2019-03-16T04:40:27.012Z,11.80
2019-03-16T04:42:53.170Z,14.07
2019-03-16T04:45:19.324Z,12.63
2019-03-16T04:47:45.466Z,15.30
2019-03-16T04:50:12.116Z,16.13
2019-03-16T04:52:38.270Z,14.23
2019-03-16T04:55:06.611Z,13.33
2019-03-16T04:57:32.783Z,16.97
2019-03-16T04:59:58.924Z,15.13
2019-03-16T05:02:25.080Z,12.40
2019-03-16T05:04:51.242Z,15.33
2019-03-16T05:07:17.409Z,16.80
2019-03-16T05:09:44.629Z,12.53
2019-03-16T05:12:10.797Z,13.77
2019-03-16T05:14:36.955Z,15.57
2019-03-16T05:17:03.096Z,14.70
2019-03-16T05:19:29.262Z,16.70
2019-03-16T05:21:55.402Z,14.60
2019-03-16T05:24:21.719Z,14.63
2019-03-16T05:26:47.955Z,15.93
2019-03-16T05:29:14.104Z,15.03
2019-03-16T05:31:40.256Z,13.70
2019-03-16T05:34:06.619Z,14.40
2019-03-16T05:36:32.826Z,11.30
2019-03-16T05:38:58.964Z,10.87
2019-03-16T05:41:25.131Z,12.57
2019-03-16T05:43:51.275Z,13.93
2019-03-16T05:46:17.470Z,12.27
2019-03-16T05:48:43.600Z,12.40
2019-03-16T05:51:09.760Z,10.07
2019-03-16T05:53:35.955Z,11.53
2019-03-16T05:56:02.206Z,17.93
2019-03-16T05:58:28.352Z,21.40
2019-03-16T06:00:54.543Z,34.13
2019-03-16T06:03:21.078Z,30.23
2019-03-16T06:05:47.227Z,14.50
2019-03-16T06:08:13.426Z,15.30
2019-03-16T06:10:39.566Z,15.43
2019-03-16T06:13:05.731Z,13.67
2019-03-16T06:15:31.887Z,12.27
2019-03-16T06:17:58.032Z,9.40
2019-03-16T06:20:24.188Z,10.53
2019-03-16T06:23:05.684Z,10.90
2019-03-16T06:25:31.887Z,11.40
2019-03-16T06:27:58.074Z,13.30
2019-03-16T06:30:24.227Z,10.80
2019-03-16T06:32:50.694Z,9.47
2019-03-16T06:35:24.441Z,8.43
2019-03-16T06:37:45.174Z,7.47
2019-03-16T06:40:12.450Z,9.20
2019-03-16T06:42:38.607Z,11.63
2019-03-16T06:45:09.615Z,9.10
2019-03-16T06:47:35.759Z,10.53
2019-03-16T06:50:05.024Z,13.47
2019-03-16T06:52:31.164Z,11.43
2019-03-16T06:54:57.340Z,10.20
2019-03-16T06:57:23.496Z,7.97
2019-03-16T06:59:49.935Z,8.27
2019-03-16T07:02:16.389Z,10.33
2019-03-16T07:04:42.556Z,9.80
2019-03-16T07:07:08.792Z,10.73
2019-03-16T07:09:34.985Z,9.40
2019-03-16T07:12:01.211Z,8.20
2019-03-16T07:14:27.387Z,12.87
2019-03-16T07:17:02.144Z,12.07
2019-03-16T07:19:21.756Z,8.47
2019-03-16T07:21:47.970Z,10.30
2019-03-16T07:24:14.346Z,9.77
2019-03-16T07:26:40.596Z,8.47
2019-03-16T07:29:06.913Z,11.77
2019-03-16T07:31:33.118Z,9.43
2019-03-16T07:33:59.269Z,10.10
2019-03-16T07:36:25.427Z,10.70
2019-03-16T07:38:51.571Z,8.50
2019-03-16T07:41:17.969Z,9.43
2019-03-16T07:43:45.440Z,8.63
2019-03-16T07:46:11.764Z,8.03
2019-03-16T07:48:37.942Z,4.20
2019-03-16T07:51:04.865Z,5.73
2019-03-16T07:53:31.135Z,4.43
2019-03-16T07:55:57.750Z,4.83
2019-03-16T07:58:24.234Z,3.47
2019-03-16T08:00:50.389Z,5.23
2019-03-16T08:03:16.628Z,4.90
2019-03-16T08:05:42.807Z,2.83
2019-03-16T08:08:09.065Z,4.47
2019-03-16T08:10:35.332Z,2.47
2019-03-16T08:13:01.614Z,4.30
2019-03-16T08:15:28.216Z,4.07
2019-03-16T08:17:54.779Z,3.97
2019-03-16T08:20:21.258Z,3.73
2019-03-16T08:22:47.611Z,5.63
2019-03-16T08:25:14.066Z,5.40
2019-03-16T08:27:53.010Z,6.63
2019-03-16T08:30:10.910Z,4.70
2019-03-16T08:32:37.269Z,3.90
2019-03-16T08:35:04.148Z,5.47
2019-03-16T08:37:30.442Z,4.50
2019-03-16T08:39:57.627Z,5.07
2019-03-16T08:42:24.803Z,6.43
2019-03-16T08:44:51.423Z,6.47
2019-03-16T08:47:17.657Z,6.10
2019-03-16T08:49:44.498Z,6.63
2019-03-16T08:52:10.986Z,7.10
2019-03-16T08:54:37.421Z,4.47
2019-03-16T08:57:03.625Z,5.90
2019-03-16T08:59:29.905Z,3.37
2019-03-16T09:01:56.214Z,8.27
2019-03-16T09:04:22.673Z,5.57
2019-03-16T09:06:49.078Z,6.70
2019-03-16T09:09:15.453Z,5.47
2019-03-16T09:11:41.684Z,6.33
2019-03-16T09:14:08.174Z,8.07
2019-03-16T09:16:34.323Z,4.40
2019-03-16T09:19:00.537Z,4.00
2019-03-16T09:21:26.757Z,4.83
2019-03-16T09:23:53.061Z,6.67
2019-03-16T09:26:19.604Z,5.07
2019-03-16T09:28:45.851Z,4.23
2019-03-16T09:31:13.324Z,5.93
2019-03-16T09:33:39.499Z,6.60
2019-03-16T09:36:05.747Z,4.50
2019-03-16T09:38:32.224Z,2.70
2019-03-16T09:40:58.639Z,5.67
2019-03-16T09:43:24.796Z,4.67
2019-03-16T09:45:50.947Z,5.37
2019-03-16T09:48:17.130Z,5.97
2019-03-16T09:50:43.297Z,1.63
2019-03-16T09:53:10.311Z,2.83
2019-03-16T09:55:36.900Z,4.27
2019-03-16T09:58:03.099Z,2.93
2019-03-16T10:00:29.284Z,4.23
2019-03-16T10:02:55.444Z,3.63
2019-03-16T10:05:21.830Z,3.40
2019-03-16T10:07:47.999Z,3.70
2019-03-16T10:10:14.540Z,5.20
2019-03-16T10:12:40.707Z,3.03
2019-03-16T10:15:08.871Z,4.67
2019-03-16T10:17:35.015Z,3.90
2019-03-16T10:20:01.190Z,4.13
2019-03-16T10:22:27.583Z,4.17
2019-03-16T10:24:53.740Z,5.53
2019-03-16T10:27:19.882Z,4.87
2019-03-16T10:29:46.081Z,4.20
2019-03-16T10:32:12.566Z,4.20
2019-03-16T10:34:38.873Z,7.43
2019-03-16T10:37:05.411Z,5.63
2019-03-16T10:39:31.568Z,4.80
2019-03-16T10:41:57.719Z,4.53
2019-03-16T10:44:23.881Z,5.40
2019-03-16T10:46:50.288Z,5.37
2019-03-16T10:49:16.441Z,3.27
2019-03-16T10:51:42.604Z,2.70
2019-03-16T10:54:08.781Z,4.63
2019-03-16T10:56:34.949Z,3.37
2019-03-16T10:59:01.112Z,4.93
2019-03-16T11:01:27.297Z,2.87
2019-03-16T11:03:53.482Z,3.40
2019-03-16T11:06:19.635Z,4.47
2019-03-16T11:08:45.805Z,3.47
2019-03-16T11:11:11.982Z,5.03
2019-03-16T11:13:38.504Z,4.20
2019-03-16T11:16:04.686Z,4.40
2019-03-16T11:18:31.039Z,3.47
2019-03-16T11:20:57.189Z,3.53
2019-03-16T11:23:23.537Z,4.20
2019-03-16T11:25:49.683Z,3.00
2019-03-16T11:28:15.856Z,4.03
2019-03-16T11:30:42.016Z,2.80
2019-03-16T11:33:08.403Z,7.53
2019-03-16T11:35:34.574Z,3.83
2019-03-16T11:38:01.929Z,4.67
2019-03-16T11:40:28.123Z,5.87
2019-03-16T11:42:54.291Z,4.07
2019-03-16T11:45:20.789Z,5.73
2019-03-16T11:47:47.014Z,3.90
2019-03-16T11:50:14.313Z,6.03
2019-03-16T11:52:40.555Z,2.97
2019-03-16T11:55:07.628Z,2.60
2019-03-16T11:57:33.803Z,4.43
2019-03-16T12:00:00.444Z,3.47
2019-03-16T12:02:26.952Z,3.50
2019-03-16T12:04:53.129Z,3.27
2019-03-16T12:07:19.275Z,3.67
2019-03-16T12:09:45.440Z,3.53
2019-03-16T12:12:11.607Z,3.60
2019-03-16T12:14:37.843Z,4.43
2019-03-16T12:17:04.322Z,4.23
2019-03-16T12:19:30.551Z,4.33
2019-03-16T12:21:56.697Z,4.90
2019-03-16T12:24:22.857Z,6.00
2019-03-16T12:26:49.038Z,4.27
2019-03-16T12:29:15.245Z,4.67
2019-03-16T12:31:42.533Z,5.50
2019-03-16T12:34:08.694Z,5.30
2019-03-16T12:36:34.939Z,3.63
2019-03-16T12:39:01.127Z,6.40
2019-03-16T12:41:29.184Z,4.33
2019-03-16T12:43:55.322Z,5.10
2019-03-16T12:46:21.855Z,3.70
2019-03-16T12:48:48.991Z,2.97
2019-03-16T12:51:15.611Z,3.17
2019-03-16T12:53:41.784Z,2.53
2019-03-16T12:56:07.959Z,3.60
2019-03-16T12:58:34.220Z,3.50
2019-03-16T13:01:00.642Z,5.00
2019-03-16T13:03:26.780Z,3.97
2019-03-16T13:05:52.944Z,3.63
2019-03-16T13:08:19.092Z,5.00
2019-03-16T13:10:45.549Z,5.10
2019-03-16T13:13:11.739Z,4.63
2019-03-16T13:15:37.889Z,3.80
2019-03-16T13:18:04.084Z,3.73
2019-03-16T13:20:30.227Z,6.97
2019-03-16T13:22:56.396Z,3.17
2019-03-16T13:25:22.583Z,6.73
2019-03-16T13:27:49.048Z,4.80
2019-03-16T13:30:19.623Z,5.37
2019-03-16T13:32:46.010Z,5.60
2019-03-16T13:35:12.504Z,2.87
2019-03-16T13:37:39.183Z,3.60
2019-03-16T13:40:14.221Z,5.17
2019-03-16T13:42:41.741Z,2.40
2019-03-16T13:45:08.611Z,3.93
2019-03-16T13:47:34.814Z,4.10
2019-03-16T13:50:01.278Z,2.93
2019-03-16T13:52:27.530Z,3.83
2019-03-16T13:54:53.666Z,4.20
2019-03-16T13:57:20.129Z,4.17
2019-03-16T13:59:46.619Z,4.73
2019-03-16T14:02:13.888Z,3.73
2019-03-16T14:04:40.439Z,3.57
2019-03-16T14:07:06.612Z,5.33
2019-03-16T14:09:32.831Z,4.63
2019-03-16T14:11:59.688Z,6.10
2019-03-16T14:14:25.852Z,4.07
2019-03-16T14:16:52.022Z,4.73
2019-03-16T14:19:18.173Z,4.77
2019-03-16T14:21:44.326Z,4.20
2019-03-16T14:24:11.173Z,3.40
2019-03-16T14:26:37.330Z,2.33
2019-03-16T14:29:03.515Z,3.17
2019-03-16T14:31:29.748Z,2.53
2019-03-16T14:33:55.938Z,5.60
2019-03-16T14:36:22.204Z,2.60
2019-03-16T14:38:48.922Z,4.40
2019-03-16T14:41:15.117Z,5.53
2019-03-16T14:43:41.295Z,3.27
2019-03-16T14:46:07.544Z,6.10
2019-03-16T14:48:33.719Z,6.40
2019-03-16T14:50:59.935Z,4.70
2019-03-16T14:53:26.167Z,3.20
2019-03-16T14:55:52.326Z,2.57
2019-03-16T14:58:18.465Z,3.80
2019-03-16T15:00:44.658Z,3.03
2019-03-16T15:03:10.818Z,3.17
2019-03-16T15:05:37.001Z,4.80
2019-03-16T15:08:03.148Z,4.00
2019-03-16T15:10:29.580Z,4.93
2019-03-16T15:12:55.727Z,3.67
2019-03-16T15:15:21.876Z,4.67
2019-03-16T15:17:48.381Z,3.80
2019-03-16T15:20:14.623Z,4.83
2019-03-16T15:22:40.950Z,5.17
2019-03-16T15:25:11.142Z,5.03
2019-03-16T15:27:36.674Z,3.47
2019-03-16T15:30:12.687Z,4.03
2019-03-16T15:32:39.050Z,6.03
2019-03-16T15:35:07.196Z,7.57
2019-03-16T15:37:33.347Z,4.00
2019-03-16T15:39:59.503Z,7.83
2019-03-16T15:42:25.661Z,3.67
2019-03-16T15:44:51.803Z,4.30
2019-03-16T15:47:17.971Z,3.60
2019-03-16T15:49:44.122Z,4.13
2019-03-16T15:52:10.284Z,4.60
2019-03-16T15:54:36.555Z,4.43
2019-03-16T15:57:03.723Z,4.73
2019-03-16T15:59:29.864Z,3.67
2019-03-16T16:01:56.017Z,2.40
2019-03-16T16:04:22.165Z,2.90
2019-03-16T16:06:48.341Z,4.23
2019-03-16T16:09:14.723Z,4.10
2019-03-16T16:11:40.945Z,2.87
2019-03-16T16:14:07.082Z,3.03
2019-03-16T16:16:33.234Z,4.50
2019-03-16T16:18:59.598Z,4.10
2019-03-16T16:21:25.742Z,6.83
2019-03-16T16:23:51.892Z,4.97
2019-03-16T16:26:18.033Z,4.27
2019-03-16T16:28:44.176Z,3.37
2019-03-16T16:31:16.221Z,6.13
2019-03-16T16:33:38.367Z,3.23
2019-03-16T16:36:04.751Z,4.73
2019-03-16T16:38:30.894Z,5.43
2019-03-16T16:40:57.262Z,4.30
2019-03-16T16:43:23.450Z,4.70
2019-03-16T16:45:49.589Z,6.37
2019-03-16T16:48:15.739Z,4.93
2019-03-16T16:50:41.883Z,5.73
2019-03-16T16:53:08.046Z,6.47
2019-03-16T16:55:34.177Z,4.40
2019-03-16T16:58:01.327Z,4.37
2019-03-16T17:00:27.461Z,4.40
2019-03-16T17:02:53.624Z,5.47
2019-03-16T17:05:20.015Z,4.90
2019-03-16T17:07:46.170Z,3.57
2019-03-16T17:10:13.413Z,5.37
2019-03-16T17:12:39.558Z,4.70
2019-03-16T17:15:10.943Z,6.03
2019-03-16T17:17:37.146Z,3.47
2019-03-16T17:20:06.429Z,7.53
2019-03-16T17:22:32.593Z,4.53
2019-03-16T17:24:58.968Z,6.17
2019-03-16T17:27:25.111Z,4.77
2019-03-16T17:29:51.278Z,4.83
2019-03-16T17:32:17.435Z,3.93
2019-03-16T17:34:43.609Z,3.50
2019-03-16T17:37:09.738Z,3.30
2019-03-16T17:39:36.271Z,3.27
2019-03-16T17:42:02.752Z,4.23
2019-03-16T17:44:28.942Z,4.73
2019-03-16T17:46:55.083Z,4.07
2019-03-16T17:49:21.239Z,3.67
2019-03-16T17:51:47.391Z,6.87
2019-03-16T17:54:14.951Z,4.90
2019-03-16T17:56:41.244Z,4.70
2019-03-16T17:59:07.716Z,5.80
2019-03-16T18:01:33.868Z,4.92
2019-03-16T18:04:00.402Z,4.30
2019-03-16T18:06:26.547Z,5.50
2019-03-16T18:08:52.935Z,4.33
2019-03-16T18:11:19.098Z,4.37
2019-03-16T18:13:45.250Z,5.40
2019-03-16T18:16:11.441Z,3.90
2019-03-16T18:18:37.890Z,5.80
2019-03-16T18:21:04.285Z,8.20
2019-03-16T18:23:30.453Z,4.77
2019-03-16T18:25:56.609Z,6.47
2019-03-16T18:28:22.878Z,4.27
2019-03-16T18:30:49.039Z,5.40
2019-03-16T18:33:15.211Z,5.43
2019-03-16T18:35:41.666Z,7.27
2019-03-16T18:38:07.800Z,8.63
2019-03-16T18:40:33.951Z,7.57
2019-03-16T18:43:00.096Z,6.13
2019-03-16T18:45:30.806Z,7.53
2019-03-16T18:47:57.179Z,6.60
2019-03-16T18:50:23.322Z,5.93
2019-03-16T18:52:49.468Z,6.37
2019-03-16T18:55:15.615Z,9.60
2019-03-16T18:57:41.770Z,6.97
2019-03-16T19:00:15.004Z,8.83
2019-03-16T19:02:41.487Z,7.53
2019-03-16T19:05:08.293Z,6.27
2019-03-16T19:07:34.449Z,8.13
2019-03-16T19:10:01.065Z,10.00
2019-03-16T19:12:27.384Z,7.20
2019-03-16T19:14:53.811Z,10.87
2019-03-16T19:17:19.992Z,6.67
2019-03-16T19:19:46.475Z,6.43
2019-03-16T19:22:12.663Z,8.63
2019-03-16T19:24:38.872Z,10.90
2019-03-16T19:27:05.039Z,8.70
2019-03-16T19:29:31.218Z,6.40
2019-03-16T19:31:57.451Z,8.53
2019-03-16T19:34:23.620Z,7.83
2019-03-16T19:36:49.814Z,6.30
2019-03-16T19:39:16.319Z,5.57
2019-03-16T19:41:42.503Z,7.63
2019-03-16T19:44:08.647Z,8.63
2019-03-16T19:46:34.799Z,9.53
2019-03-16T19:49:00.998Z,9.93
2019-03-16T19:51:27.143Z,8.30
2019-03-16T19:53:53.584Z,8.57
2019-03-16T19:56:19.747Z,7.17
2019-03-16T19:58:45.901Z,9.13
2019-03-16T20:01:12.047Z,7.27
2019-03-16T20:03:38.197Z,9.00
2019-03-16T20:06:04.583Z,6.87
2019-03-16T20:08:30.838Z,7.90
2019-03-16T20:11:05.901Z,6.50
2019-03-16T20:13:25.336Z,7.97
2019-03-16T20:15:51.491Z,7.17
2019-03-16T20:18:17.626Z,7.07
2019-03-16T20:20:43.819Z,8.97
2019-03-16T20:23:09.946Z,9.80
2019-03-16T20:25:36.110Z,9.03
2019-03-16T20:28:02.263Z,10.13
2019-03-16T20:30:28.414Z,9.20
2019-03-16T20:33:03.909Z,8.47
2019-03-16T20:35:22.645Z,7.83
2019-03-16T20:37:48.887Z,8.00
2019-03-16T20:40:15.484Z,14.20
2019-03-16T20:42:41.941Z,7.73
2019-03-16T20:45:08.814Z,8.07
2019-03-16T20:47:36.052Z,8.70
2019-03-16T20:50:05.226Z,7.07
2019-03-16T20:52:31.384Z,7.83
2019-03-16T20:54:57.539Z,7.17
2019-03-16T20:57:23.679Z,13.10
2019-03-16T20:59:49.841Z,7.40
2019-03-16T21:02:16.240Z,9.17
2019-03-16T21:04:43.506Z,10.47
2019-03-16T21:07:09.740Z,6.47
2019-03-16T21:09:35.926Z,9.50
2019-03-16T21:12:02.087Z,9.83
2019-03-16T21:14:28.235Z,7.00
2019-03-16T21:16:54.412Z,5.47
2019-03-16T21:19:20.610Z,8.10
2019-03-16T21:21:46.767Z,6.57
2019-03-16T21:24:12.923Z,7.53
2019-03-16T21:26:51.672Z,6.77
2019-03-16T21:29:07.130Z,8.07
2019-03-16T21:31:33.298Z,8.30
2019-03-16T21:33:59.454Z,6.63
2019-03-16T21:36:25.632Z,5.33
2019-03-16T21:38:51.775Z,7.77
2019-03-16T21:41:17.957Z,8.20
2019-03-16T21:43:45.383Z,6.43
2019-03-16T21:46:11.564Z,7.00
2019-03-16T21:48:37.982Z,5.47
2019-03-16T21:51:04.426Z,5.90
2019-03-16T21:53:31.102Z,5.53
2019-03-16T21:55:57.598Z,5.63
2019-03-16T21:58:23.748Z,5.70
2019-03-16T22:00:49.993Z,5.77
2019-03-16T22:03:16.479Z,10.13
2019-03-16T22:05:42.975Z,7.07
2019-03-16T22:08:09.196Z,5.17
2019-03-16T22:10:35.707Z,6.10
2019-03-16T22:13:01.896Z,8.83
2019-03-16T22:15:28.082Z,6.50
2019-03-16T22:17:54.286Z,5.80
2019-03-16T22:20:20.506Z,5.57
2019-03-16T22:22:46.700Z,6.07
2019-03-16T22:25:13.154Z,5.83
2019-03-16T22:27:39.357Z,6.27
2019-03-16T22:30:09.357Z,5.83
2019-03-16T22:32:36.652Z,5.30
2019-03-16T22:35:04.647Z,4.80
2019-03-16T22:37:31.035Z,5.70
2019-03-16T22:39:57.183Z,5.07
2019-03-16T22:42:23.377Z,5.83
2019-03-16T22:44:49.528Z,6.37
2019-03-16T22:47:15.687Z,4.30
2019-03-16T22:49:41.836Z,5.43
2019-03-16T22:52:08.029Z,7.37
2019-03-16T22:54:34.370Z,5.40
2019-03-16T22:57:00.983Z,4.50
2019-03-16T22:59:27.142Z,7.93
2019-03-16T23:01:53.271Z,4.40
2019-03-16T23:04:19.430Z,5.33
2019-03-16T23:06:45.591Z,5.10
2019-03-16T23:09:12.147Z,5.57
2019-03-16T23:11:38.549Z,4.57
2019-03-16T23:14:04.851Z,5.17
2019-03-16T23:16:31.015Z,5.97
2019-03-16T23:18:57.210Z,5.83
2019-03-16T23:21:23.355Z,5.93
2019-03-16T23:23:49.516Z,5.37
2019-03-16T23:26:15.728Z,6.53
2019-03-16T23:28:42.154Z,5.93
2019-03-16T23:31:08.409Z,5.47
2019-03-16T23:33:35.047Z,5.20
2019-03-16T23:36:01.304Z,5.57
2019-03-16T23:38:27.561Z,5.77
2019-03-16T23:40:54.038Z,4.27
2019-03-16T23:43:20.176Z,8.60
2019-03-16T23:45:46.373Z,5.00
2019-03-16T23:48:12.512Z,5.87
2019-03-16T23:50:39.703Z,5.50
2019-03-16T23:53:05.837Z,5.50
2019-03-16T23:55:31.993Z,5.03
2019-03-16T23:57:58.180Z,6.27
